Time;durP1;ratioP1;P1;durP2;ratioP2;P2;SDS_P1;SDS_P2;PMS_P1;PMS_P2;Temp;Humidity;BMP_temperature;BMP_pressure;BME280_temperature;BME280_humidity;BME280_pressure;Samples;Min_cycle;Max_cycle;Signal;HPM_P1;HPM_P2
2023/08/21 00:02:01;;;;;;;7.90;7.03;;;;;;;24.52;60.21;95175.31;5073009;28;20456;-78
2023/08/21 00:04:29;;;;;;;8.20;7.40;;;;;;;24.45;60.34;95169.13;5073061;28;20444;-79
2023/08/21 00:06:56;;;;;;;8.70;7.23;;;;;;;24.48;61.44;95181.31;5073124;28;20451;-79
2023/08/21 00:09:23;;;;;;;8.80;6.83;;;;;;;24.49;60.22;95178.41;5073308;28;20459;-77
2023/08/21 00:11:49;;;;;;;8.27;6.57;;;;;;;24.44;60.19;95172.84;5072311;28;20479;-78
2023/08/21 00:14:16;;;;;;;7.30;6.60;;;;;;;24.42;60.40;95171.41;5073207;28;20457;-78
2023/08/21 00:16:43;;;;;;;7.93;7.23;;;;;;;24.36;61.13;95173.91;5072895;28;20448;-78
2023/08/21 00:19:10;;;;;;;7.57;6.57;;;;;;;24.36;60.40;95176.59;5072998;28;20455;-76
2023/08/21 00:21:40;;;;;;;6.90;6.30;;;;;;;24.24;60.56;95172.84;5070878;28;20461;-77
2023/08/21 00:24:07;;;;;;;7.70;6.90;;;;;;;24.23;60.85;95170.34;5072847;28;20532;-78
2023/08/21 00:26:34;;;;;;;10.73;8.10;;;;;;;24.13;61.23;95175.31;5072728;28;20446;-78
2023/08/21 00:29:01;;;;;;;6.87;6.27;;;;;;;24.08;61.39;95173.25;5072677;28;20446;-78
2023/08/21 00:31:28;;;;;;;7.63;6.93;;;;;;;24.06;61.82;95165.44;5072785;28;20823;-78
2023/08/21 00:33:54;;;;;;;10.60;7.60;;;;;;;24.08;61.70;95168.72;5070517;28;20462;-78
2023/08/21 00:36:21;;;;;;;9.97;7.37;;;;;;;24.03;61.39;95170.38;5072577;28;20442;-76
2023/08/21 00:38:49;;;;;;;10.20;8.03;;;;;;;24.00;62.04;95168.94;5072804;28;20448;-78
2023/08/21 00:41:16;;;;;;;7.20;6.50;;;;;;;24.00;62.06;95166.25;5072670;28;20798;-78
2023/08/21 00:43:43;;;;;;;10.30;6.93;;;;;;;23.99;61.78;95175.31;5072447;28;20911;-78
2023/08/21 00:46:11;;;;;;;6.77;6.20;;;;;;;23.94;62.13;95171.59;5073006;28;20448;-78
2023/08/21 00:48:40;;;;;;;7.20;6.60;;;;;;;23.84;61.77;95180.06;5072538;28;20447;-78
2023/08/21 00:51:07;;;;;;;8.10;7.13;;;;;;;23.84;62.16;95180.06;5072788;28;20979;-78
2023/08/21 00:53:34;;;;;;;8.03;7.10;;;;;;;23.70;62.63;95176.50;5072615;28;20455;-78
2023/08/21 00:56:03;;;;;;;8.87;7.97;;;;;;;23.68;62.61;95175.06;5072539;28;20446;-77
2023/08/21 00:58:30;;;;;;;7.53;6.93;;;;;;;23.69;63.03;95182.09;5072830;28;20442;-78
2023/08/21 01:00:57;;;;;;;7.43;6.83;;;;;;;23.66;63.04;95185.16;5072814;28;20448;-77
2023/08/21 01:03:25;;;;;;;7.57;6.90;;;;;;;23.66;63.18;95180.63;5073051;28;20451;-79
2023/08/21 01:05:52;;;;;;;11.30;7.17;;;;;;;23.67;62.99;95186.81;5073227;28;20495;-79
2023/08/21 01:08:25;;;;;;;15.73;8.73;;;;;;;23.69;63.51;95190.13;5072702;28;20450;-78
2023/08/21 01:10:57;;;;;;;8.23;7.40;;;;;;;23.74;63.14;95195.72;5072599;28;20454;-78
2023/08/21 01:13:41;;;;;;;7.73;7.03;;;;;;;23.83;62.81;95191.81;5072520;28;20498;-78
2023/08/21 01:16:09;;;;;;;8.57;7.73;;;;;;;23.84;63.55;95187.28;5072393;28;20442;-79
2023/08/21 01:18:37;;;;;;;7.67;6.97;;;;;;;23.82;62.80;95171.41;5072792;28;20452;-79
2023/08/21 01:21:04;;;;;;;8.83;8.03;;;;;;;23.94;62.35;95191.19;5072585;28;20483;-77
2023/08/21 01:23:36;;;;;;;10.13;7.80;;;;;;;23.92;62.50;95184.38;5075174;28;20523;-77
2023/08/21 01:26:04;;;;;;;8.23;7.50;;;;;;;23.95;62.56;95187.47;5076256;28;20962;-78
2023/08/21 01:28:31;;;;;;;8.10;7.03;;;;;;;23.94;63.03;95183.16;5076441;28;20484;-77
2023/08/21 01:31:06;;;;;;;8.47;7.67;;;;;;;23.90;63.06;95181.91;5076256;28;20454;-79
2023/08/21 01:33:37;;;;;;;8.13;7.27;;;;;;;23.87;63.42;95179.63;5076174;28;21027;-78
2023/08/21 01:36:05;;;;;;;7.83;7.07;;;;;;;23.93;63.22;95186.84;5076226;28;20520;-78
2023/08/21 01:38:33;;;;;;;10.20;7.53;;;;;;;23.94;63.03;95185.81;5040604;28;20463;-78
2023/08/21 01:41:01;;;;;;;7.23;6.53;;;;;;;23.93;62.83;95186.84;5075995;28;20450;-76
2023/08/21 01:43:28;;;;;;;8.20;7.43;;;;;;;23.85;63.09;95179.03;5040734;28;20444;-79
2023/08/21 01:45:56;;;;;;;9.80;6.93;;;;;;;23.87;63.53;95176.97;5057003;28;20451;-79
2023/08/21 01:48:22;;;;;;;8.60;7.70;;;;;;;23.92;62.77;95185.22;5075904;28;20442;-79
2023/08/21 01:50:49;;;;;;;8.30;7.50;;;;;;;23.88;62.46;95183.97;5075544;28;20489;-79
2023/08/21 01:53:16;;;;;;;9.50;7.07;;;;;;;23.83;62.28;95188.31;5075908;28;20973;-78
2023/08/21 01:55:43;;;;;;;9.17;7.33;;;;;;;23.81;62.97;95188.50;5040551;28;20442;-79
2023/08/21 01:58:11;;;;;;;7.77;7.03;;;;;;;23.76;63.65;95183.75;5073736;28;20438;-79
2023/08/21 02:00:38;;;;;;;8.33;6.90;;;;;;;23.75;64.47;95182.13;5075693;28;20447;-79
2023/08/21 02:03:07;;;;;;;7.67;6.97;;;;;;;23.81;63.67;95177.78;5076035;28;20451;-78
2023/08/21 02:05:38;;;;;;;9.27;7.00;;;;;;;23.86;62.69;95185.22;5076010;28;20442;-79
2023/08/21 02:08:06;;;;;;;9.30;8.50;;;;;;;23.85;62.66;95183.56;5075546;28;20447;-79
2023/08/21 02:10:33;;;;;;;7.53;6.83;;;;;;;23.83;62.76;95175.72;5075608;28;20448;-78
2023/08/21 02:13:00;;;;;;;13.53;8.40;;;;;;;23.83;63.45;95183.75;5075600;28;20829;-79
2023/08/21 02:15:28;;;;;;;7.37;6.77;;;;;;;23.88;62.87;95178.59;5075274;28;20443;-79
2023/08/21 02:17:55;;;;;;;11.53;7.77;;;;;;;23.87;62.83;95182.31;5075398;28;20448;-79
2023/08/21 02:20:23;;;;;;;8.87;7.97;;;;;;;23.89;62.53;95174.06;5075414;28;20444;-79
2023/08/21 02:22:50;;;;;;;7.83;7.13;;;;;;;23.87;63.41;95179.63;5075040;28;20835;-79
2023/08/21 02:25:17;;;;;;;8.40;7.70;;;;;;;23.81;63.95;95180.47;5075307;28;20779;-79
2023/08/21 02:27:44;;;;;;;9.30;8.40;;;;;;;23.82;63.42;95182.13;5075197;28;20824;-78
2023/08/21 02:30:11;;;;;;;9.10;8.03;;;;;;;23.81;63.32;95177.78;5075215;28;20843;-78
2023/08/21 02:32:40;;;;;;;8.87;7.80;;;;;;;23.78;63.14;95179.03;5075162;28;20885;-79
2023/08/21 02:35:08;;;;;;;8.40;7.33;;;;;;;23.77;63.65;95177.38;5073944;28;20871;-79
2023/08/21 02:37:38;;;;;;;8.50;7.70;;;;;;;23.79;64.30;95179.84;5075285;28;20448;-79
2023/08/21 02:40:27;;;;;;;7.90;7.20;;;;;;;23.84;63.68;95187.28;5075019;28;20767;-79
2023/08/21 02:42:53;;;;;;;8.50;7.70;;;;;;;23.75;64.22;95186.66;5032647;28;20928;-79
2023/08/21 02:45:20;;;;;;;7.93;7.30;;;;;;;23.73;63.97;95183.34;4999822;28;20469;-79
2023/08/21 02:47:48;;;;;;;9.30;8.27;;;;;;;23.67;64.52;95181.47;5032713;28;20545;-79
2023/08/21 02:50:15;;;;;;;15.97;8.00;;;;;;;23.64;64.52;95188.06;5032612;28;20440;-79
2023/08/21 02:52:42;;;;;;;8.00;7.20;;;;;;;23.64;64.67;95181.88;5032431;28;20486;-78
2023/08/21 02:55:09;;;;;;;11.90;7.73;;;;;;;23.59;65.07;95179.81;5032407;28;20832;-78
2023/08/21 02:57:39;;;;;;;11.13;8.67;;;;;;;23.56;64.64;95185.56;5032391;28;20453;-79
2023/08/21 03:00:07;;;;;;;9.73;7.57;;;;;;;23.47;65.14;95184.91;5032145;28;20443;-79
2023/08/21 03:02:38;;;;;;;8.30;7.50;;;;;;;23.37;64.77;95186.31;4983664;28;20449;-78
2023/08/21 03:05:08;;;;;;;9.00;8.20;;;;;;;23.31;65.50;95200.50;5032252;28;20830;-78
2023/08/21 03:07:35;;;;;;;8.03;7.23;;;;;;;23.24;65.87;95191.63;5032408;28;20546;-79
2023/08/21 03:10:02;;;;;;;8.90;8.10;;;;;;;23.20;65.92;95187.72;5032031;28;20758;-78
2023/08/21 03:12:29;;;;;;;8.40;7.73;;;;;;;23.18;65.87;95187.91;5032043;28;20526;-79
2023/08/21 03:14:56;;;;;;;9.33;7.33;;;;;;;23.20;66.18;95195.75;5069502;28;20454;-77
2023/08/21 03:17:23;;;;;;;16.80;8.10;;;;;;;23.21;66.30;95190.19;5074160;28;20441;-78
2023/08/21 03:19:50;;;;;;;8.47;7.77;;;;;;;23.18;66.25;95195.94;5074114;28;20447;-78
2023/08/21 03:22:18;;;;;;;9.17;8.13;;;;;;;23.16;66.05;95195.31;5074023;28;20822;-78
2023/08/21 03:24:45;;;;;;;9.07;8.17;;;;;;;23.10;66.62;95202.28;5038599;28;20427;-79
2023/08/21 03:27:11;;;;;;;8.37;7.67;;;;;;;23.08;66.38;95211.53;5073881;28;20445;-78
2023/08/21 03:29:39;;;;;;;17.63;8.10;;;;;;;23.05;66.95;95207.41;5073925;28;20444;-79
2023/08/21 03:32:06;;;;;;;9.83;8.27;;;;;;;23.07;67.54;95212.56;5038772;28;20488;-78
2023/08/21 03:34:33;;;;;;;11.37;7.87;;;;;;;23.07;67.13;95207.22;5074196;28;20837;-79
2023/08/21 03:36:59;;;;;;;8.10;7.30;;;;;;;22.98;67.39;95201.22;5073916;28;20835;-79
2023/08/21 03:39:28;;;;;;;8.10;7.30;;;;;;;23.03;67.42;95205.97;5074494;28;20851;-79
2023/08/21 03:41:54;;;;;;;9.47;8.17;;;;;;;23.05;67.21;95203.91;5073729;28;20504;-78
2023/08/21 03:44:21;;;;;;;9.00;8.30;;;;;;;23.06;67.37;95200.19;5073883;28;20452;-78
2023/08/21 03:46:48;;;;;;;8.43;7.63;;;;;;;23.06;67.12;95200.19;5073437;28;20451;-78
2023/08/21 03:49:15;;;;;;;7.50;6.90;;;;;;;23.12;67.33;95199.41;5073319;28;20815;-79
2023/08/21 03:51:41;;;;;;;7.93;7.23;;;;;;;23.12;66.65;95205.56;5073928;28;20446;-77
2023/08/21 03:54:08;;;;;;;9.17;8.17;;;;;;;23.13;66.92;95195.69;5073163;28;20496;-77
2023/08/21 03:56:36;;;;;;;8.33;7.53;;;;;;;23.16;66.77;95198.81;5073351;28;20979;-77
2023/08/21 03:59:03;;;;;;;11.23;7.93;;;;;;;23.23;66.72;95203.38;5073485;28;20447;-78
2023/08/21 04:01:30;;;;;;;8.30;7.50;;;;;;;23.27;66.17;95205.44;5072953;28;20434;-77
2023/08/21 04:03:57;;;;;;;10.13;8.33;;;;;;;23.33;66.25;95204.63;5073295;28;20451;-77
2023/08/21 04:06:24;;;;;;;11.43;8.00;;;;;;;23.48;66.55;95204.50;5071367;28;20462;-78
2023/08/21 04:08:50;;;;;;;12.43;9.30;;;;;;;23.49;64.58;95201.59;5073154;28;20457;-77
2023/08/21 04:11:17;;;;;;;10.60;8.40;;;;;;;23.38;64.99;95210.22;5071249;28;20816;-78
2023/08/21 04:13:46;;;;;;;9.93;8.77;;;;;;;23.36;64.90;95206.91;5037841;28;20481;-77
2023/08/21 04:16:12;;;;;;;9.13;8.33;;;;;;;23.28;65.08;95209.78;5072897;28;20945;-77
2023/08/21 04:18:39;;;;;;;11.50;7.90;;;;;;;23.25;65.48;95204.81;5073153;28;20844;-78
2023/08/21 04:21:06;;;;;;;9.13;8.33;;;;;;;23.36;65.31;95209.59;5073039;28;20482;-82
2023/08/21 04:23:33;;;;;;;9.13;8.30;;;;;;;23.47;65.12;95211.69;5073294;28;20547;-77
2023/08/21 04:26:02;;;;;;;7.87;7.07;;;;;;;23.90;64.35;95218.63;5073122;28;20451;-80
2023/08/21 04:28:29;;;;;;;9.07;8.20;;;;;;;24.40;63.16;95214.53;5073520;28;20529;-76
2023/08/21 04:30:57;;;;;;;8.97;8.23;;;;;;;25.11;60.97;95211.94;5053901;28;20463;-76
2023/08/21 04:33:24;;;;;;;9.43;8.17;;;;;;;25.64;58.98;95211.72;5072751;28;21068;-76
2023/08/21 04:35:51;;;;;;;8.07;7.27;;;;;;;26.05;56.77;95223.91;5074076;28;20449;-76
2023/08/21 04:38:18;;;;;;;10.23;9.03;;;;;;;26.36;55.92;95226.59;5073056;28;20494;-76
2023/08/21 04:40:45;;;;;;;18.93;8.60;;;;;;;26.42;55.58;95225.72;5072924;28;20441;-76
2023/08/21 04:43:12;;;;;;;11.50;8.20;;;;;;;26.68;55.11;95223.84;5072805;28;20499;-76
2023/08/21 04:45:38;;;;;;;7.83;7.07;;;;;;;26.94;56.69;95230.81;5072879;28;20440;-76
2023/08/21 04:48:07;;;;;;;26.63;8.67;;;;;;;26.82;55.03;95225.34;5070327;28;20951;-76
2023/08/21 04:50:34;;;;;;;18.63;9.03;;;;;;;27.10;55.43;95228.38;5065296;28;20453;-80
2023/08/21 04:53:00;;;;;;;10.50;8.60;;;;;;;27.55;53.07;95224.56;5072734;28;20495;-77
2023/08/21 04:55:27;;;;;;;19.17;8.90;;;;;;;27.87;51.73;95234.09;5072774;28;20456;-77
2023/08/21 04:57:54;;;;;;;18.50;10.20;;;;;;;28.01;51.81;95232.00;5074105;28;20441;-76
2023/08/21 05:00:21;;;;;;;12.47;9.77;;;;;;;28.00;50.52;95225.81;5077372;28;20594;-77
2023/08/21 05:02:47;;;;;;;14.60;10.60;;;;;;;28.21;50.55;95242.53;5076852;28;20447;-77
2023/08/21 05:05:16;;;;;;;11.33;9.13;;;;;;;28.38;50.46;95243.53;5076951;28;20433;-78
2023/08/21 05:07:43;;;;;;;11.67;9.63;;;;;;;28.41;50.13;95242.25;5076924;28;20441;-81
2023/08/21 05:10:10;;;;;;;13.33;8.73;;;;;;;28.47;50.28;95246.72;5076587;28;20440;-80
2023/08/21 05:12:37;;;;;;;13.70;9.60;;;;;;;28.60;49.73;95246.50;5076837;28;20453;-79
2023/08/21 05:15:04;;;;;;;10.60;9.47;;;;;;;28.64;49.87;95250.41;5076090;28;20448;-79
2023/08/21 05:17:31;;;;;;;10.67;9.03;;;;;;;28.71;49.05;95251.09;5076680;28;20440;-76
2023/08/21 05:19:58;;;;;;;12.50;9.23;;;;;;;28.75;48.45;95251.44;5076493;28;20542;-78
2023/08/21 05:22:26;;;;;;;21.20;10.20;;;;;;;28.66;48.41;95261.78;5075940;28;20483;-78
2023/08/21 05:24:52;;;;;;;9.80;8.60;;;;;;;28.63;49.79;95257.69;5085278;28;20444;-78
2023/08/21 05:27:19;;;;;;;15.07;9.20;;;;;;;28.35;49.45;95257.50;5075796;28;20813;-79
2023/08/21 05:29:46;;;;;;;20.43;11.67;;;;;;;28.30;49.88;95249.25;5075912;28;20771;-77
2023/08/21 05:32:13;;;;;;;15.70;8.30;;;;;;;28.45;50.01;95248.84;5075680;28;20558;-77
2023/08/21 05:34:40;;;;;;;12.83;9.80;;;;;;;28.55;50.35;95247.19;5076169;28;21060;-76
2023/08/21 05:37:07;;;;;;;15.80;9.50;;;;;;;28.66;50.53;95253.69;5075349;28;20444;-77
2023/08/21 05:39:35;;;;;;;9.53;8.63;;;;;;;28.91;50.09;95248.91;5075468;28;20437;-80
2023/08/21 05:42:02;;;;;;;15.20;8.17;;;;;;;29.19;49.08;95252.75;5075266;28;20453;-79
2023/08/21 05:44:28;;;;;;;9.20;8.23;;;;;;;29.53;48.04;95237.56;5075230;28;20449;-78
2023/08/21 05:46:55;;;;;;;11.40;7.07;;;;;;;29.96;47.15;95255.16;5075492;28;20448;-78
2023/08/21 05:49:22;;;;;;;7.77;7.03;;;;;;;30.05;46.40;95235.59;5078882;28;20521;-79
2023/08/21 05:51:49;;;;;;;7.83;6.97;;;;;;;30.27;46.06;95238.44;5095568;28;20493;-77
2023/08/21 05:54:15;;;;;;;7.50;6.80;;;;;;;30.62;45.24;95246.38;5082575;28;20487;-79
2023/08/21 05:56:44;;;;;;;8.40;7.60;;;;;;;30.58;44.91;95247.91;5072991;28;20775;-78
2023/08/21 05:59:11;;;;;;;10.03;6.73;;;;;;;30.52;45.50;95246.19;5075553;28;20448;-78
2023/08/21 06:01:38;;;;;;;8.40;7.70;;;;;;;30.64;44.81;95240.72;5074830;28;20817;-81
2023/08/21 06:04:05;;;;;;;8.00;6.93;;;;;;;30.81;51.11;95250.47;5075334;28;20451;-82
2023/08/21 06:06:32;;;;;;;7.80;7.20;;;;;;;31.11;45.82;95241.97;5075026;28;20437;-78
2023/08/21 06:08:58;;;;;;;9.43;7.70;;;;;;;31.40;43.39;95241.84;5074798;28;20518;-79
2023/08/21 06:11:25;;;;;;;7.97;7.13;;;;;;;31.56;43.29;95242.88;5074635;28;20467;-79
2023/08/21 06:13:53;;;;;;;8.07;7.27;;;;;;;31.81;42.93;95245.94;5074467;28;20553;-79
2023/08/21 06:16:20;;;;;;;9.10;7.50;;;;;;;32.03;42.43;95252.13;5074329;28;20445;-80
2023/08/21 06:18:47;;;;;;;9.60;8.10;;;;;;;32.07;41.48;95251.63;5074656;28;20445;-79
2023/08/21 06:21:14;;;;;;;8.60;7.70;;;;;;;31.96;41.96;95256.13;5074464;28;20547;-80
2023/08/21 06:23:41;;;;;;;10.17;8.43;;;;;;;31.95;41.76;95254.50;5074322;28;20445;-79
2023/08/21 06:26:08;;;;;;;8.60;7.27;;;;;;;32.11;41.91;95255.50;5074485;28;20523;-79
2023/08/21 06:28:34;;;;;;;8.57;7.30;;;;;;;32.29;41.34;95250.53;5074441;28;20444;-79
2023/08/21 06:31:03;;;;;;;7.87;6.97;;;;;;;32.51;40.79;95258.63;5055434;28;20452;-77
2023/08/21 06:33:30;;;;;;;8.40;7.60;;;;;;;32.63;39.84;95256.53;5074207;28;20517;-79
2023/08/21 06:35:56;;;;;;;7.57;6.87;;;;;;;32.87;39.69;95256.22;5073806;28;20444;-78
2023/08/21 06:38:23;;;;;;;16.23;7.97;;;;;;;32.93;38.68;95256.00;5055143;28;20440;-78
2023/08/21 06:40:50;;;;;;;8.87;8.07;;;;;;;32.93;39.98;95261.44;5073897;28;20437;-78
2023/08/21 06:43:17;;;;;;;16.77;8.03;;;;;;;32.83;38.71;95258.66;5074276;28;20531;-77
2023/08/21 06:45:44;;;;;;;9.23;8.30;;;;;;;32.88;39.19;95255.97;5073986;28;20441;-76
2023/08/21 06:48:12;;;;;;;9.70;7.27;;;;;;;32.70;39.43;95256.34;5074166;28;20440;-77
2023/08/21 06:50:39;;;;;;;9.33;7.93;;;;;;;32.82;40.12;95259.72;5074037;28;20806;-79
2023/08/21 06:53:06;;;;;;;7.97;7.17;;;;;;;32.88;39.51;95264.13;5074204;28;20809;-78
2023/08/21 06:55:33;;;;;;;9.30;8.27;;;;;;;32.90;40.05;95252.97;5074039;28;20460;-79
2023/08/21 06:57:59;;;;;;;10.87;9.07;;;;;;;32.92;39.11;95258.97;5073748;28;20480;-80
2023/08/21 07:00:26;;;;;;;11.27;8.40;;;;;;;32.68;40.94;95255.78;5055138;28;20449;-80
2023/08/21 07:02:53;;;;;;;9.40;8.10;;;;;;;32.37;42.66;95248.44;5073800;28;20441;-77
2023/08/21 07:05:22;;;;;;;9.97;8.13;;;;;;;32.16;42.29;95258.25;5073765;28;20460;-79
2023/08/21 07:07:49;;;;;;;10.60;8.70;;;;;;;32.33;41.85;95256.28;5055250;28;20440;-80
2023/08/21 07:10:16;;;;;;;13.87;8.30;;;;;;;32.40;40.87;95248.75;5073517;28;20452;-81
2023/08/21 07:12:42;;;;;;;9.83;8.60;;;;;;;32.20;42.70;95254.78;5073679;28;20456;-79
2023/08/21 07:15:10;;;;;;;13.60;9.30;;;;;;;32.29;41.95;95261.41;5073527;28;20491;-80
2023/08/21 07:17:37;;;;;;;9.60;7.70;;;;;;;32.39;43.14;95249.84;5054515;28;20480;-79
2023/08/21 07:20:05;;;;;;;9.60;8.70;;;;;;;32.42;41.90;95249.31;5073383;28;20451;-80
2023/08/21 07:22:33;;;;;;;9.77;8.03;;;;;;;32.43;41.69;95250.13;5074846;28;20876;-79
2023/08/21 07:25:00;;;;;;;14.00;8.67;;;;;;;32.19;41.18;95255.03;5074640;28;20455;-80
2023/08/21 07:27:27;;;;;;;11.00;8.37;;;;;;;31.92;41.48;95253.13;5074319;28;20522;-79
2023/08/21 07:29:54;;;;;;;11.57;9.30;;;;;;;31.97;42.57;95252.34;5073518;28;20440;-80
2023/08/21 07:32:20;;;;;;;15.87;8.57;;;;;;;31.79;43.25;95250.78;5073488;28;20452;-80
2023/08/21 07:34:47;;;;;;;12.50;8.73;;;;;;;32.01;43.88;95248.88;5054342;28;20484;-81
2023/08/21 07:37:14;;;;;;;14.20;8.60;;;;;;;32.29;43.42;95249.72;5073163;28;20451;-79
2023/08/21 07:39:42;;;;;;;9.10;8.30;;;;;;;32.35;42.32;95244.06;5073071;28;20439;-81
2023/08/21 07:42:11;;;;;;;15.73;8.90;;;;;;;32.17;41.71;95249.03;5072908;28;20951;-79
2023/08/21 07:44:38;;;;;;;12.60;9.30;;;;;;;31.88;42.93;95240.31;5073093;28;20814;-80
2023/08/21 07:47:05;;;;;;;14.67;9.37;;;;;;;31.81;43.41;95245.13;5072818;28;20825;-80
2023/08/21 07:49:32;;;;;;;12.03;8.73;;;;;;;31.86;41.95;95237.84;5072918;28;20455;-80
2023/08/21 07:51:59;;;;;;;15.10;9.60;;;;;;;31.95;41.85;95247.16;5073160;28;20437;-79
2023/08/21 07:54:26;;;;;;;13.97;8.93;;;;;;;31.96;42.54;95239.84;5073136;28;20488;-80
2023/08/21 07:56:54;;;;;;;11.10;8.70;;;;;;;32.22;43.07;95239.03;5072764;28;20436;-80
2023/08/21 07:59:22;;;;;;;19.10;8.80;;;;;;;32.51;43.33;95239.59;5072472;28;20441;-81
2023/08/21 08:01:49;;;;;;;15.73;8.90;;;;;;;32.83;41.52;95236.09;5072696;28;20445;-80
2023/08/21 08:04:16;;;;;;;12.07;8.53;;;;;;;33.32;40.41;95238.63;5072591;28;20448;-81
2023/08/21 08:06:43;;;;;;;10.33;8.60;;;;;;;33.63;37.71;95234.13;5072445;28;20445;-79
2023/08/21 08:09:10;;;;;;;13.53;8.80;;;;;;;33.89;36.98;95235.06;5072750;28;20510;-81
2023/08/21 08:11:36;;;;;;;8.57;7.87;;;;;;;33.91;35.36;95227.47;5072204;28;20777;-80
2023/08/21 08:14:05;;;;;;;8.73;7.87;;;;;;;33.82;36.23;95219.75;5072768;28;20488;-80
2023/08/21 08:16:31;;;;;;;8.50;7.70;;;;;;;33.93;36.37;95228.00;5072582;28;20453;-80
2023/08/21 08:18:59;;;;;;;15.13;7.97;;;;;;;33.97;34.97;95226.38;5072185;28;20445;-79
2023/08/21 08:21:25;;;;;;;9.70;8.50;;;;;;;33.95;36.71;95221.19;5072469;28;20504;-81
2023/08/21 08:23:52;;;;;;;10.43;8.73;;;;;;;33.40;37.19;95225.31;5072664;28;20437;-80
2023/08/21 08:26:19;;;;;;;12.40;9.00;;;;;;;33.45;37.88;95224.50;5072268;28;20448;-79
2023/08/21 08:28:46;;;;;;;9.60;8.07;;;;;;;33.58;37.30;95217.78;5072213;28;20449;-80
2023/08/21 08:31:17;;;;;;;9.73;8.80;;;;;;;33.75;37.56;95216.47;5072164;28;20927;-79
2023/08/21 08:33:44;;;;;;;16.20;8.53;;;;;;;33.68;37.37;95217.81;5071586;28;20839;-80
2023/08/21 08:36:11;;;;;;;15.60;8.27;;;;;;;33.18;36.85;95219.16;5072159;28;20444;-81
2023/08/21 08:38:38;;;;;;;9.53;8.37;;;;;;;33.18;38.21;95211.84;5071992;28;20463;-78
2023/08/21 08:41:11;;;;;;;10.67;7.87;;;;;;;33.00;37.36;95212.28;5072360;28;20491;-79
2023/08/21 08:43:40;;;;;;;17.17;10.00;;;;;;;33.10;36.06;95208.81;5053245;28;20440;-78
2023/08/21 08:46:09;;;;;;;10.47;8.10;;;;;;;33.33;36.85;95210.31;5072003;28;20437;-79
2023/08/21 08:48:39;;;;;;;8.60;7.70;;;;;;;33.46;35.64;95202.47;5071954;28;20453;-78
2023/08/21 08:51:06;;;;;;;9.43;7.73;;;;;;;33.57;35.26;95200.63;5075714;28;20938;-79
2023/08/21 08:53:34;;;;;;;9.93;7.97;;;;;;;33.67;35.49;95202.56;5076798;28;20467;-78
2023/08/21 08:56:00;;;;;;;10.47;6.90;;;;;;;33.51;34.87;95197.06;5085336;28;20480;-80
2023/08/21 08:58:27;;;;;;;8.50;7.77;;;;;;;33.18;35.86;95197.41;5071038;28;20849;-80
2023/08/21 09:00:54;;;;;;;13.20;7.27;;;;;;;33.32;36.22;95195.06;5083143;28;20440;-80
2023/08/21 09:03:21;;;;;;;8.17;6.53;;;;;;;33.22;35.90;95193.06;5081172;28;20859;-81
2023/08/21 09:05:49;;;;;;;10.20;8.17;;;;;;;33.11;35.61;95194.13;5078013;28;20437;-78
2023/08/21 09:08:16;;;;;;;8.13;7.10;;;;;;;33.26;36.53;95196.94;5087576;28;20468;-79
2023/08/21 09:10:45;;;;;;;10.33;7.50;;;;;;;33.34;36.07;95190.19;5072186;28;20782;-79
2023/08/21 09:13:17;;;;;;;15.03;6.70;;;;;;;33.58;37.20;95193.28;5090757;28;20444;-78
2023/08/21 09:15:44;;;;;;;9.03;7.07;;;;;;;33.82;34.91;95186.25;5088988;28;21065;-80
2023/08/21 09:18:11;;;;;;;7.07;6.37;;;;;;;33.84;34.27;95187.69;5073105;28;20928;-79
2023/08/21 09:20:39;;;;;;;9.30;6.50;;;;;;;33.97;35.85;95183.63;5080688;28;20866;-75
2023/08/21 09:23:08;;;;;;;13.50;6.80;;;;;;;34.06;35.34;95182.00;5074603;28;20477;-74
2023/08/21 09:25:40;;;;;;;9.23;7.30;;;;;;;34.12;34.61;95174.66;5089858;28;20435;-75
2023/08/21 09:28:07;;;;;;;8.07;7.27;;;;;;;34.05;33.61;95172.19;5058469;28;20537;-75
2023/08/21 09:30:51;;;;;;;8.47;6.80;;;;;;;33.94;33.66;95176.00;5077835;28;20853;-76
2023/08/21 09:33:19;;;;;;;9.40;6.97;;;;;;;34.00;34.38;95172.19;5074683;28;20444;-78
2023/08/21 09:35:46;;;;;;;8.07;7.37;;;;;;;33.97;33.83;95172.72;5077226;28;20828;-78
2023/08/21 09:38:15;;;;;;;10.17;6.70;;;;;;;33.88;33.61;95168.09;5081520;28;20440;-76
2023/08/21 09:40:43;;;;;;;10.07;6.63;;;;;;;33.90;34.09;95168.63;5071351;28;20586;-76
2023/08/21 09:43:10;;;;;;;12.07;7.37;;;;;;;33.81;34.16;95173.72;5080422;28;20451;-78
2023/08/21 09:45:38;;;;;;;15.23;7.53;;;;;;;33.92;33.88;95171.91;5074759;28;20440;-77
2023/08/21 09:48:06;;;;;;;8.23;6.87;;;;;;;33.89;33.24;95165.09;5077615;28;20441;-77
2023/08/21 09:50:33;;;;;;;7.43;6.77;;;;;;;33.77;34.33;95168.00;5074448;28;20453;-77
2023/08/21 09:53:00;;;;;;;8.87;7.10;;;;;;;33.77;34.54;95168.00;5071942;28;20924;-77
2023/08/21 09:55:31;;;;;;;7.23;6.63;;;;;;;33.62;33.74;95164.44;5075321;28;20477;-76
2023/08/21 09:58:00;;;;;;;6.60;6.00;;;;;;;33.75;34.41;95155.75;5082276;28;20482;-77
2023/08/21 10:00:30;;;;;;;8.47;6.67;;;;;;;33.88;33.19;95141.69;5088467;28;20447;-77
2023/08/21 10:03:02;;;;;;;10.70;7.37;;;;;;;34.05;34.54;95157.75;5079251;28;20448;-78
2023/08/21 10:05:29;;;;;;;6.53;5.97;;;;;;;34.07;33.64;95144.69;5075051;28;20439;-77
2023/08/21 10:07:57;;;;;;;11.40;6.53;;;;;;;33.78;32.22;95145.13;5054835;28;20445;-78
2023/08/21 10:10:24;;;;;;;8.20;6.83;;;;;;;33.83;32.24;95134.31;5084349;28;20961;-78
2023/08/21 10:12:52;;;;;;;8.43;6.30;;;;;;;33.62;32.49;95138.03;5073477;28;20456;-78
2023/08/21 10:15:19;;;;;;;17.50;7.43;;;;;;;33.49;32.89;95135.81;5082688;28;20479;-78
2023/08/21 10:17:46;;;;;;;13.50;7.37;;;;;;;33.55;34.28;95137.47;5048201;28;20444;-79
2023/08/21 10:20:13;;;;;;;7.37;6.67;;;;;;;33.35;32.78;95132.78;5083013;28;20448;-77
2023/08/21 10:22:43;;;;;;;7.03;6.43;;;;;;;33.22;34.19;95134.03;5058134;28;20468;-79
2023/08/21 10:25:19;;;;;;;6.17;5.50;;;;;;;33.07;34.08;95127.75;5090563;28;20464;-78
2023/08/21 10:27:47;;;;;;;8.70;6.83;;;;;;;33.05;34.84;95132.63;5089622;28;20484;-78
2023/08/21 10:30:22;;;;;;;7.50;6.90;;;;;;;32.89;33.80;95129.00;5078113;28;20436;-78
2023/08/21 10:32:50;;;;;;;9.07;6.57;;;;;;;32.78;34.66;95114.50;5093678;28;20478;-78
2023/08/21 10:35:20;;;;;;;12.77;6.53;;;;;;;33.01;35.30;95120.66;5093504;28;20482;-77
2023/08/21 10:38:12;;;;;;;8.83;6.47;;;;;;;33.04;34.30;95115.50;5093056;28;20443;-78
2023/08/21 10:40:40;;;;;;;8.10;6.40;;;;;;;33.09;34.62;95107.34;5091932;28;20922;-77
2023/08/21 10:43:43;;;;;;;7.10;6.50;;;;;;;33.29;33.81;95109.34;5090306;28;20441;-77
2023/08/21 10:46:11;;;;;;;7.43;6.73;;;;;;;33.36;33.54;95114.56;5013839;28;20467;-78
2023/08/21 10:48:38;;;;;;;6.47;5.97;;;;;;;33.17;33.37;95108.72;5034130;28;20442;-76
2023/08/21 10:51:07;;;;;;;7.70;6.90;;;;;;;33.14;33.80;95101.94;5034095;28;20431;-78
2023/08/21 10:53:34;;;;;;;7.27;6.20;;;;;;;33.05;33.44;95095.38;5038199;28;20423;-78
2023/08/21 10:56:05;;;;;;;6.90;6.20;;;;;;;33.08;33.47;95091.28;5044275;28;20498;-77
2023/08/21 10:58:36;;;;;;;7.37;6.67;;;;;;;33.07;34.07;95085.03;5035168;28;20447;-78
2023/08/21 11:01:03;;;;;;;9.50;6.40;;;;;;;33.18;33.44;95094.03;5034836;28;20447;-77
2023/08/21 11:03:31;;;;;;;7.80;7.03;;;;;;;33.30;33.51;95089.22;5035594;28;20431;-77
2023/08/21 11:06:05;;;;;;;6.93;6.23;;;;;;;33.24;33.59;95082.09;5030441;28;20428;-76
2023/08/21 11:08:32;;;;;;;7.10;6.40;;;;;;;33.36;33.96;95090.06;5034762;28;20442;-78
2023/08/21 11:10:59;;;;;;;7.57;6.93;;;;;;;33.36;33.04;95085.44;5012753;28;20460;-76
2023/08/21 11:13:26;;;;;;;13.53;7.50;;;;;;;33.51;33.68;95082.75;5024186;28;20451;-77
2023/08/21 11:16:00;;;;;;;7.33;6.73;;;;;;;33.54;32.85;95087.69;5020557;28;20487;-79
2023/08/21 11:18:35;;;;;;;8.37;7.57;;;;;;;33.29;32.33;95076.69;5020156;28;20885;-78
2023/08/21 11:21:06;;;;;;;6.10;5.70;;;;;;;33.32;32.90;95089.78;5018890;28;20462;-78
2023/08/21 11:23:34;;;;;;;6.70;6.10;;;;;;;33.17;32.17;95079.63;5051692;28;20437;-78
2023/08/21 11:26:02;;;;;;;7.17;6.30;;;;;;;33.15;32.58;95081.81;5038128;28;20449;-78
2023/08/21 11:28:29;;;;;;;6.80;6.30;;;;;;;33.00;32.58;95068.16;5072891;28;20439;-77
2023/08/21 11:30:57;;;;;;;6.47;5.97;;;;;;;33.10;32.66;95073.63;5072086;28;20448;-76
2023/08/21 11:33:24;;;;;;;8.27;6.33;;;;;;;33.19;32.38;95069.28;5071970;28;20441;-76